Time,TemperatureF,DewpointF,PressureIn,WindDirection,WindDirectionDegrees,WindSpeedMPH,WindSpeedGustMPH,Humidity,HourlyPrecipIn,Conditions,Clouds,dailyrainin,SoftwareType,DateUTC
2013-10-21 00:11:00,38.3,38.0,30.11,South,170,0.0,0.0,98,0.00,,,0.00,weatherlink.com 1.10,2013-10-21 05:11:00,
2013-10-21 00:27:00,37.5,37.0,30.11,South,170,0.0,0.0,98,0.00,,,0.00,weatherlink.com 1.10,2013-10-21 05:27:00,
2013-10-21 00:42:00,37.8,37.0,30.12,South,170,0.0,0.0,98,0.00,,,0.00,weatherlink.com 1.10,2013-10-21 05:42:00,
2013-10-21 00:57:00,37.6,37.0,30.11,SSE,155,0.0,0.0,98,0.00,,,0.00,weatherlink.com 1.10,2013-10-21 05:57:00,
2013-10-21 01:13:00,37.2,37.0,30.12,SSE,155,0.0,0.0,98,0.00,,,0.00,weatherlink.com 1.10,2013-10-21 06:13:00,
2013-10-21 01:27:00,36.9,37.0,30.12,SSE,155,0.0,0.0,99,0.00,,,0.00,weatherlink.com 1.10,2013-10-21 06:27:00,
2013-10-21 01:42:00,36.8,37.0,30.12,SSE,155,0.0,0.0,99,0.00,,,0.00,weatherlink.com 1.10,2013-10-21 06:42:00,
2013-10-21 01:57:00,36.7,37.0,30.12,SSE,156,0.0,0.0,99,0.00,,,0.00,weatherlink.com 1.10,2013-10-21 06:57:00,
2013-10-21 02:12:00,36.3,36.0,30.13,SSE,155,0.0,0.0,99,0.00,,,0.00,weatherlink.com 1.10,2013-10-21 07:12:00,
2013-10-21 02:27:00,35.9,36.0,30.13,SSE,155,0.0,0.0,99,0.00,,,0.00,weatherlink.com 1.10,2013-10-21 07:27:00,
2013-10-21 02:42:00,35.7,36.0,30.13,SSE,155,0.0,0.0,99,0.00,,,0.00,weatherlink.com 1.10,2013-10-21 07:42:00,
2013-10-21 02:57:00,35.2,35.0,30.13,SSE,155,0.0,0.0,99,0.00,,,0.00,weatherlink.com 1.10,2013-10-21 07:57:00,
2013-10-21 03:12:00,35.4,35.0,30.13,SSE,155,0.0,0.0,99,0.00,,,0.00,weatherlink.com 1.10,2013-10-21 08:12:00,
2013-10-21 03:27:00,35.2,35.0,30.13,SSE,155,0.0,0.0,99,0.00,,,0.00,weatherlink.com 1.10,2013-10-21 08:27:00,
2013-10-21 03:42:00,35.7,36.0,30.13,SSE,156,0.0,1.0,99,0.00,,,0.00,weatherlink.com 1.10,2013-10-21 08:42:00,
2013-10-21 03:57:00,36.0,36.0,30.14,SSE,156,0.0,0.0,99,0.00,,,0.00,weatherlink.com 1.10,2013-10-21 08:57:00,
2013-10-21 04:12:00,35.7,36.0,30.14,SSE,155,0.0,0.0,99,0.00,,,0.00,weatherlink.com 1.10,2013-10-21 09:12:00,
2013-10-21 04:27:00,35.2,35.0,30.14,SSE,155,0.0,0.0,99,0.00,,,0.00,weatherlink.com 1.10,2013-10-21 09:27:00,
2013-10-21 04:42:00,35.1,35.0,30.14,SSE,155,0.0,0.0,99,0.00,,,0.00,weatherlink.com 1.10,2013-10-21 09:42:00,
2013-10-21 04:57:00,35.3,35.0,30.14,SSE,155,0.0,0.0,99,0.00,,,0.00,weatherlink.com 1.10,2013-10-21 09:57:00,
2013-10-21 05:12:00,35.5,35.0,30.15,SSE,156,0.0,0.0,99,0.00,,,0.00,weatherlink.com 1.10,2013-10-21 10:12:00,
2013-10-21 05:27:00,35.1,35.0,30.15,SSE,156,0.0,0.0,99,0.00,,,0.00,weatherlink.com 1.10,2013-10-21 10:27:00,
2013-10-21 05:42:00,34.8,35.0,30.15,SSE,155,0.0,0.0,99,0.00,,,0.00,weatherlink.com 1.10,2013-10-21 10:42:00,
2013-10-21 05:57:00,34.0,34.0,30.15,SSE,156,0.0,0.0,99,0.00,,,0.00,weatherlink.com 1.10,2013-10-21 10:57:00,
2013-10-21 06:12:00,34.5,34.0,30.15,SSE,155,0.0,0.0,99,0.00,,,0.00,weatherlink.com 1.10,2013-10-21 11:12:00,
2013-10-21 06:27:00,34.5,34.0,30.15,SSE,156,0.0,0.0,99,0.00,,,0.00,weatherlink.com 1.10,2013-10-21 11:27:00,
2013-10-21 06:42:00,33.9,34.0,30.16,SSE,156,0.0,0.0,99,0.00,,,0.00,weatherlink.com 1.10,2013-10-21 11:42:00,
2013-10-21 06:57:00,33.3,33.0,30.16,SSE,155,0.0,0.0,99,0.00,,,0.00,weatherlink.com 1.10,2013-10-21 11:57:00,
2013-10-21 07:12:00,34.3,34.0,30.16,SSE,155,0.0,0.0,99,0.00,,,0.00,weatherlink.com 1.10,2013-10-21 12:12:00,
2013-10-21 07:27:00,36.1,36.0,30.17,SSE,155,0.0,0.0,99,0.00,,,0.00,weatherlink.com 1.10,2013-10-21 12:27:00,
2013-10-21 07:42:00,37.9,38.0,30.17,SSE,156,0.0,0.0,99,0.00,,,0.00,weatherlink.com 1.10,2013-10-21 12:42:00,
2013-10-21 07:57:00,41.9,42.0,30.18,SSE,155,0.0,0.0,99,0.00,,,0.00,weatherlink.com 1.10,2013-10-21 12:57:00,
2013-10-21 08:13:00,44.0,44.0,30.18,SSE,155,0.0,0.0,99,0.00,,,0.00,weatherlink.com 1.10,2013-10-21 13:13:00,
2013-10-21 08:28:00,47.8,48.0,30.18,SSE,156,0.0,0.0,100,0.00,,,0.00,weatherlink.com 1.10,2013-10-21 13:28:00,
2013-10-21 08:43:00,50.5,50.0,30.18,SE,144,0.0,1.0,99,0.00,,,0.00,weatherlink.com 1.10,2013-10-21 13:43:00,
2013-10-21 08:58:00,51.2,49.0,30.18,ESE,121,0.0,3.0,92,0.00,,,0.00,weatherlink.com 1.10,2013-10-21 13:58:00,
2013-10-21 09:13:00,53.5,49.0,30.18,SSW,193,1.0,3.0,83,0.00,,,0.00,weatherlink.com 1.10,2013-10-21 14:13:00,
2013-10-21 09:28:00,54.9,48.0,30.19,SE,141,2.0,4.0,78,0.00,,,0.00,weatherlink.com 1.10,2013-10-21 14:28:00,
2013-10-21 09:43:00,56.3,48.0,30.18,East,84,3.0,4.0,73,0.00,,,0.00,weatherlink.com 1.10,2013-10-21 14:43:00,
2013-10-21 09:58:00,58.2,49.0,30.18,East,98,2.0,5.0,71,0.00,,,0.00,weatherlink.com 1.10,2013-10-21 14:58:00,
2013-10-21 10:13:00,59.8,48.0,30.18,ESE,121,2.0,5.0,66,0.00,,,0.00,weatherlink.com 1.10,2013-10-21 15:13:00,
2013-10-21 10:28:00,60.6,49.0,30.18,West,273,2.0,6.0,65,0.00,,,0.00,weatherlink.com 1.10,2013-10-21 15:28:00,
2013-10-21 10:43:00,61.3,47.0,30.18,SSW,208,1.0,6.0,60,0.00,,,0.00,weatherlink.com 1.10,2013-10-21 15:43:00,
2013-10-21 10:58:00,62.0,48.0,30.18,East,96,3.0,5.0,60,0.00,,,0.00,weatherlink.com 1.10,2013-10-21 15:58:00,
2013-10-21 11:13:00,63.3,49.0,30.17,SSE,162,3.0,4.0,59,0.00,,,0.00,weatherlink.com 1.10,2013-10-21 16:13:00,
2013-10-21 11:28:00,64.2,48.0,30.16,South,169,5.0,7.0,56,0.00,,,0.00,weatherlink.com 1.10,2013-10-21 16:28:00,
2013-10-21 11:43:00,64.5,48.0,30.16,WNW,293,2.0,6.0,55,0.00,,,0.00,weatherlink.com 1.10,2013-10-21 16:43:00,
2013-10-21 11:58:00,65.9,45.0,30.15,ESE,105,3.0,5.0,48,0.00,,,0.00,weatherlink.com 1.10,2013-10-21 16:58:00,
2013-10-21 12:13:00,66.0,46.0,30.14,SE,131,1.0,5.0,49,0.00,,,0.00,weatherlink.com 1.10,2013-10-21 17:13:00,
2013-10-21 12:28:00,67.5,46.0,30.15,SE,131,0.0,6.0,47,0.00,,,0.00,weatherlink.com 1.10,2013-10-21 17:28:00,
2013-10-21 12:43:00,68.1,45.0,30.13,SW,222,1.0,5.0,43,0.00,,,0.00,weatherlink.com 1.10,2013-10-21 17:43:00,
2013-10-21 12:59:00,68.3,45.0,30.12,SSE,150,1.0,6.0,44,0.00,,,0.00,weatherlink.com 1.10,2013-10-21 17:59:00,
2013-10-21 13:14:00,68.9,46.0,30.12,SW,215,1.0,4.0,44,0.00,,,0.00,weatherlink.com 1.10,2013-10-21 18:14:00,
2013-10-21 13:29:00,69.2,46.0,30.11,SE,127,1.0,6.0,44,0.00,,,0.00,weatherlink.com 1.10,2013-10-21 18:29:00,
2013-10-21 13:44:00,69.4,46.0,30.10,ESE,120,7.0,8.0,44,0.00,,,0.00,weatherlink.com 1.10,2013-10-21 18:44:00,
2013-10-21 13:59:00,69.1,46.0,30.09,SE,133,0.0,6.0,44,0.00,,,0.00,weatherlink.com 1.10,2013-10-21 18:59:00,
2013-10-21 14:14:00,68.2,47.0,30.09,SE,137,3.0,6.0,47,0.00,,,0.00,weatherlink.com 1.10,2013-10-21 19:14:00,
2013-10-21 14:29:00,68.6,47.0,30.08,SSE,148,2.0,6.0,46,0.00,,,0.00,weatherlink.com 1.10,2013-10-21 19:29:00,
2013-10-21 14:44:00,69.4,48.0,30.08,ESE,102,1.0,4.0,46,0.00,,,0.00,weatherlink.com 1.10,2013-10-21 19:44:00,
2013-10-21 14:59:00,69.1,48.0,30.08,South,174,0.0,6.0,47,0.00,,,0.00,weatherlink.com 1.10,2013-10-21 19:59:00,
2013-10-21 15:14:00,68.4,48.0,30.08,SSE,149,3.0,7.0,48,0.00,,,0.00,weatherlink.com 1.10,2013-10-21 20:14:00,
2013-10-21 15:29:00,67.9,48.0,30.08,SE,132,5.0,8.0,50,0.00,,,0.00,weatherlink.com 1.10,2013-10-21 20:29:00,
2013-10-21 15:44:00,67.8,49.0,30.08,ESE,109,3.0,5.0,51,0.00,,,0.00,weatherlink.com 1.10,2013-10-21 20:44:00,
2013-10-21 15:59:00,67.3,49.0,30.08,SSE,159,4.0,7.0,53,0.00,,,0.00,weatherlink.com 1.10,2013-10-21 20:59:00,
2013-10-21 16:14:00,66.6,50.0,30.08,SSE,167,2.0,4.0,56,0.00,,,0.00,weatherlink.com 1.10,2013-10-21 21:14:00,
2013-10-21 16:29:00,65.8,51.0,30.08,SE,134,2.0,7.0,59,0.00,,,0.00,weatherlink.com 1.10,2013-10-21 21:29:00,
2013-10-21 16:44:00,65.3,51.0,30.09,SSE,147,2.0,4.0,61,0.00,,,0.00,weatherlink.com 1.10,2013-10-21 21:44:00,
2013-10-21 16:59:00,64.7,51.0,30.09,SSE,153,1.0,3.0,62,0.00,,,0.00,weatherlink.com 1.10,2013-10-21 21:59:00,
2013-10-21 17:14:00,63.9,51.0,30.09,SSE,152,2.0,4.0,63,0.00,,,0.00,weatherlink.com 1.10,2013-10-21 22:14:00,
2013-10-21 17:29:00,63.0,51.0,30.08,SSE,150,1.0,3.0,65,0.00,,,0.00,weatherlink.com 1.10,2013-10-21 22:29:00,
2013-10-21 17:44:00,61.9,51.0,30.09,SE,146,0.0,2.0,68,0.00,,,0.00,weatherlink.com 1.10,2013-10-21 22:44:00,
2013-10-21 17:59:00,60.7,51.0,30.08,SE,131,0.0,2.0,70,0.00,,,0.00,weatherlink.com 1.10,2013-10-21 22:59:00,
2013-10-21 18:14:00,59.6,51.0,30.08,SSW,195,0.0,0.0,72,0.00,,,0.00,weatherlink.com 1.10,2013-10-21 23:14:00,
2013-10-21 18:29:00,58.3,50.0,30.08,SE,131,0.0,0.0,75,0.00,,,0.00,weatherlink.com 1.10,2013-10-21 23:29:00,
2013-10-21 18:44:00,57.3,51.0,30.08,NNE,21,0.0,1.0,78,0.00,,,0.00,weatherlink.com 1.10,2013-10-21 23:44:00,
2013-10-21 18:59:00,56.3,50.0,30.09,NNE,23,0.0,0.0,80,0.00,,,0.00,weatherlink.com 1.10,2013-10-21 23:59:00,
2013-10-21 19:14:00,55.5,51.0,30.09,SE,132,1.0,1.0,84,0.00,,,0.00,weatherlink.com 1.10,2013-10-22 00:14:00,
2013-10-21 19:29:00,55.1,51.0,30.09,SE,132,0.0,0.0,86,0.00,,,0.00,weatherlink.com 1.10,2013-10-22 00:29:00,
2013-10-21 19:44:00,54.5,50.0,30.09,SE,132,0.0,0.0,86,0.00,,,0.00,weatherlink.com 1.10,2013-10-22 00:44:00,
2013-10-21 19:59:00,53.7,50.0,30.08,SE,132,0.0,0.0,88,0.00,,,0.00,weatherlink.com 1.10,2013-10-22 00:59:00,
2013-10-21 20:14:00,53.6,51.0,30.09,SE,132,0.0,0.0,90,0.00,,,0.00,weatherlink.com 1.10,2013-10-22 01:14:00,
2013-10-21 20:29:00,53.6,51.0,30.09,SE,132,0.0,0.0,91,0.00,,,0.00,weatherlink.com 1.10,2013-10-22 01:29:00,
2013-10-21 20:44:00,53.5,51.0,30.09,SE,132,0.0,0.0,90,0.00,,,0.00,weatherlink.com 1.10,2013-10-22 01:44:00,
2013-10-21 20:59:00,54.1,52.0,30.09,SE,132,0.0,1.0,91,0.00,,,0.00,weatherlink.com 1.10,2013-10-22 01:59:00,
2013-10-21 21:14:00,54.2,51.0,30.09,SE,133,0.0,0.0,90,0.00,,,0.00,weatherlink.com 1.10,2013-10-22 02:14:00,
2013-10-21 21:29:00,54.1,52.0,30.09,SE,132,0.0,1.0,91,0.00,,,0.00,weatherlink.com 1.10,2013-10-22 02:29:00,
2013-10-21 21:44:00,53.8,51.0,30.10,SE,133,0.0,0.0,91,0.00,,,0.00,weatherlink.com 1.10,2013-10-22 02:44:00,
2013-10-21 21:59:00,53.6,51.0,30.10,SE,132,0.0,0.0,91,0.00,,,0.00,weatherlink.com 1.10,2013-10-22 02:59:00,
2013-10-21 22:14:00,53.6,52.0,30.09,SE,132,0.0,0.0,93,0.00,,,0.00,weatherlink.com 1.10,2013-10-22 03:14:00,
2013-10-21 22:29:00,53.6,52.0,30.10,SSE,167,0.0,1.0,93,0.00,,,0.00,weatherlink.com 1.10,2013-10-22 03:29:00,
2013-10-21 22:44:00,53.9,51.0,30.10,SSE,166,0.0,0.0,91,0.00,,,0.00,weatherlink.com 1.10,2013-10-22 03:44:00,
2013-10-21 22:59:00,53.8,51.0,30.09,SSE,166,0.0,1.0,91,0.00,,,0.00,weatherlink.com 1.10,2013-10-22 03:59:00,
2013-10-21 23:14:00,53.8,51.0,30.09,SE,143,0.0,0.0,91,0.00,,,0.00,weatherlink.com 1.10,2013-10-22 04:14:00,
2013-10-21 23:29:00,53.5,51.0,30.09,SE,143,0.0,0.0,92,0.00,,,0.00,weatherlink.com 1.10,2013-10-22 04:29:00,
2013-10-21 23:44:00,53.3,51.0,30.09,SE,143,0.0,0.0,93,0.00,,,0.00,weatherlink.com 1.10,2013-10-22 04:44:00,
2013-10-21 23:59:00,53.4,52.0,30.09,SE,143,0.0,1.0,93,0.00,,,0.00,weatherlink.com 1.10,2013-10-22 04:59:00,